createdAt,value
2018-09-20T00:02:16.238Z,73.40
2018-09-20T00:04:44.741Z,74.60
2018-09-20T00:07:13.221Z,74.20
2018-09-20T00:09:41.468Z,74.00
2018-09-20T00:12:09.721Z,74.10
2018-09-20T00:14:38.084Z,74.90
2018-09-20T00:17:06.529Z,74.10
2018-09-20T00:24:57.792Z,74.40
2018-09-20T00:27:26.095Z,75.50
2018-09-20T00:29:54.361Z,75.50
2018-09-20T00:32:23.219Z,76.00
2018-09-20T00:34:51.663Z,76.00
2018-09-20T00:37:20.181Z,75.90
2018-09-20T00:44:43.519Z,76.20
2018-09-20T00:47:11.771Z,76.80
2018-09-20T00:49:39.930Z,77.50
2018-09-20T00:52:08.218Z,77.30
2018-09-20T00:54:36.596Z,77.30
2018-09-20T00:57:05.229Z,77.30
2018-09-20T00:59:33.551Z,77.20
2018-09-20T01:02:02.043Z,77.00
2018-09-20T01:04:30.609Z,77.00
2018-09-20T01:06:58.970Z,76.90
2018-09-20T01:09:27.299Z,77.10
2018-09-20T01:11:55.576Z,77.20
2018-09-20T01:14:24.032Z,77.30
2018-09-20T01:16:52.490Z,77.80
2018-09-20T01:24:14.137Z,78.30
2018-09-20T01:26:42.371Z,78.70
2018-09-20T01:29:10.585Z,78.90
2018-09-20T01:31:38.895Z,79.30
2018-09-20T01:34:07.282Z,79.40
2018-09-20T01:37:33.471Z,79.30
2018-09-20T01:40:01.803Z,79.30
2018-09-20T01:42:30.037Z,79.30
2018-09-20T01:44:58.308Z,79.40
2018-09-20T01:47:26.876Z,79.60
2018-09-20T01:49:55.136Z,80.00
2018-09-20T01:52:23.465Z,80.10
2018-09-20T01:54:51.925Z,80.10
2018-09-20T01:57:20.248Z,79.90
2018-09-20T01:59:48.630Z,79.90
2018-09-20T02:02:16.965Z,80.00
2018-09-20T02:04:45.278Z,79.70
2018-09-20T02:07:13.550Z,80.00
2018-09-20T02:09:42.172Z,80.20
2018-09-20T02:12:10.544Z,80.00
2018-09-20T02:14:38.912Z,79.90
2018-09-20T02:17:07.504Z,79.90
2018-09-20T02:19:35.845Z,80.20
2018-09-20T02:22:04.185Z,80.20
2018-09-20T02:24:32.495Z,80.30
2018-09-20T02:27:01.370Z,80.40
2018-09-20T02:29:29.760Z,80.60
2018-09-20T02:31:58.107Z,80.70
2018-09-20T02:34:26.436Z,80.80
2018-09-20T02:36:54.792Z,80.90
2018-09-20T02:39:24.220Z,81.00
2018-09-20T02:41:52.530Z,81.10
2018-09-20T02:44:20.827Z,81.50
2018-09-20T02:46:49.155Z,81.70
2018-09-20T02:49:17.471Z,82.00
2018-09-20T02:51:45.987Z,82.20
2018-09-20T02:54:15.420Z,82.40
2018-09-20T02:56:43.857Z,82.50
2018-09-20T02:59:12.146Z,82.40
2018-09-20T03:06:34.278Z,82.60
2018-09-20T03:09:02.502Z,82.80
2018-09-20T03:11:30.770Z,82.80
2018-09-20T03:13:59.067Z,83.10
2018-09-20T03:16:27.628Z,82.90
2018-09-20T03:23:51.126Z,83.10
2018-09-20T03:26:19.449Z,82.90
2018-09-20T03:28:48.028Z,82.80
2018-09-20T03:31:16.354Z,83.10
2018-09-20T03:33:44.694Z,83.40
2018-09-20T03:36:13.839Z,83.70
2018-09-20T03:38:42.209Z,83.80
2018-09-20T03:41:10.809Z,83.60
2018-09-20T03:43:39.207Z,83.50
2018-09-20T03:46:07.591Z,83.50
2018-09-20T03:48:35.986Z,83.60
2018-09-20T03:51:04.371Z,83.40
2018-09-20T03:53:33.208Z,83.30
2018-09-20T03:56:01.582Z,83.60
2018-09-20T03:58:30.782Z,83.90
2018-09-20T04:00:59.258Z,83.90
2018-09-20T04:03:27.583Z,84.40
2018-09-20T04:05:55.857Z,84.20
2018-09-20T04:08:24.109Z,83.90
2018-09-20T04:10:52.326Z,84.40
2018-09-20T04:13:20.543Z,84.40
2018-09-20T04:15:48.820Z,85.30
2018-09-20T04:18:17.081Z,84.60
2018-09-20T04:20:45.339Z,84.60
2018-09-20T04:23:14.692Z,84.60
2018-09-20T04:25:42.962Z,84.60
2018-09-20T04:28:11.229Z,84.60
2018-09-20T04:30:39.594Z,84.60
2018-09-20T04:33:08.126Z,84.60
2018-09-20T04:35:36.395Z,84.40
2018-09-20T04:38:05.237Z,83.80
2018-09-20T04:40:37.766Z,83.30
2018-09-20T04:43:07.583Z,83.10
2018-09-20T04:45:36.005Z,82.90
2018-09-20T04:48:04.726Z,82.80
2018-09-20T04:50:32.992Z,83.10
2018-09-20T04:53:01.269Z,82.60
2018-09-20T04:55:29.502Z,82.60
2018-09-20T04:57:57.814Z,82.50
2018-09-20T05:00:27.018Z,82.60
2018-09-20T05:02:55.258Z,82.60
2018-09-20T05:05:23.606Z,82.60
2018-09-20T05:07:51.844Z,82.70
2018-09-20T05:10:20.171Z,82.80
2018-09-20T05:12:48.402Z,82.70
2018-09-20T05:15:17.452Z,82.80
2018-09-20T05:17:45.725Z,83.30
2018-09-20T05:20:14.093Z,83.60
2018-09-20T05:27:39.483Z,84.20
2018-09-20T05:30:07.859Z,84.20
2018-09-20T05:32:37.964Z,83.70
2018-09-20T05:35:06.321Z,83.50
2018-09-20T05:37:35.335Z,83.50
2018-09-20T05:40:03.742Z,83.60
2018-09-20T05:42:32.134Z,83.40
2018-09-20T05:49:57.311Z,82.80
2018-09-20T05:52:25.506Z,82.40
2018-09-20T05:54:53.732Z,82.30
2018-09-20T05:57:21.998Z,82.00
2018-09-20T05:59:50.315Z,82.50
2018-09-20T06:02:19.130Z,80.90
2018-09-20T06:04:47.357Z,79.90
2018-09-20T06:07:15.793Z,79.30
2018-09-20T06:09:43.996Z,78.80
2018-09-20T06:12:12.292Z,78.30
2018-09-20T06:14:40.532Z,78.30
2018-09-20T06:17:08.773Z,78.20
2018-09-20T06:19:36.981Z,78.20
2018-09-20T06:22:05.245Z,77.90
2018-09-20T06:29:27.274Z,76.70
2018-09-20T06:31:55.797Z,75.80
2018-09-20T06:34:24.021Z,75.40
2018-09-20T06:36:52.353Z,75.50
2018-09-20T06:39:20.564Z,75.20
2018-09-20T06:46:41.264Z,75.70
2018-09-20T06:49:09.478Z,76.20
2018-09-20T06:51:37.704Z,75.10
2018-09-20T06:54:05.981Z,74.80
2018-09-20T06:56:34.258Z,74.20
2018-09-20T06:59:03.901Z,73.60
2018-09-20T07:01:32.167Z,73.20
2018-09-20T07:04:07.152Z,72.80
2018-09-20T07:06:35.385Z,72.50
2018-09-20T07:09:04.534Z,72.70
2018-09-20T07:11:32.942Z,72.10
2018-09-20T07:14:01.124Z,71.60
2018-09-20T07:16:29.424Z,71.10
2018-09-20T07:18:57.604Z,70.40
2018-09-20T07:21:26.110Z,70.20
2018-09-20T07:23:54.636Z,69.90
2018-09-20T07:26:22.965Z,69.30
2018-09-20T07:28:51.236Z,68.50
2018-09-20T07:31:19.437Z,68.30
2018-09-20T07:33:48.114Z,68.20
2018-09-20T07:36:16.691Z,66.80
2018-09-20T07:38:44.939Z,66.40
2018-09-20T07:41:13.209Z,66.20
2018-09-20T07:48:35.330Z,66.00
2018-09-20T07:51:03.687Z,64.20
2018-09-20T07:53:31.865Z,63.60
2018-09-20T07:56:00.202Z,63.40
2018-09-20T07:58:28.494Z,63.30
2018-09-20T08:00:57.556Z,63.40
2018-09-20T08:03:25.891Z,63.00
2018-09-20T08:05:54.215Z,62.60
2018-09-20T08:08:22.607Z,61.50
2018-09-20T08:10:50.909Z,62.20
2018-09-20T08:13:19.118Z,59.50
2018-09-20T08:15:47.317Z,58.10
2018-09-20T08:18:15.543Z,56.50
2018-09-20T08:20:43.930Z,53.80
2018-09-20T08:23:13.046Z,52.50
2018-09-20T08:25:41.238Z,50.40
2018-09-20T08:28:09.484Z,49.50
2018-09-20T08:30:37.731Z,47.50
2018-09-20T08:33:06.172Z,49.00
2018-09-20T08:35:34.383Z,50.30
2018-09-20T08:38:02.640Z,51.40
2018-09-20T08:40:30.894Z,53.40
2018-09-20T08:42:59.120Z,53.30
2018-09-20T08:45:27.393Z,51.00
2018-09-20T08:47:55.624Z,50.20
2018-09-20T08:50:23.922Z,50.70
2018-09-20T08:52:52.141Z,51.10
2018-09-20T08:55:20.297Z,49.60
2018-09-20T08:57:51.447Z,47.70
2018-09-20T09:00:19.748Z,46.90
2018-09-20T09:07:40.736Z,49.60
2018-09-20T09:10:08.924Z,51.00
2018-09-20T09:12:37.143Z,48.50
2018-09-20T09:15:05.405Z,46.10
2018-09-20T09:17:33.705Z,45.40
2018-09-20T09:20:03.278Z,42.70
2018-09-20T09:22:31.553Z,41.40
2018-09-20T09:24:59.714Z,41.30
2018-09-20T09:27:28.023Z,42.50
2018-09-20T09:29:56.274Z,42.50
2018-09-20T09:32:24.544Z,42.90
2018-09-20T09:34:52.882Z,44.10
2018-09-20T09:37:21.177Z,44.70
2018-09-20T09:39:49.366Z,44.20
2018-09-20T09:42:17.705Z,44.20
2018-09-20T09:44:45.841Z,43.90
2018-09-20T09:47:14.025Z,44.30
2018-09-20T09:49:46.303Z,43.60
2018-09-20T09:52:14.497Z,43.20
2018-09-20T09:54:42.754Z,43.20
2018-09-20T09:57:10.951Z,42.20
2018-09-20T09:59:40.283Z,42.70
2018-09-20T10:02:08.503Z,42.50
2018-09-20T10:04:36.733Z,42.70
2018-09-20T10:07:05.188Z,43.80
2018-09-20T10:09:33.326Z,44.50
2018-09-20T10:12:01.618Z,44.50
2018-09-20T10:14:29.826Z,45.70
2018-09-20T10:16:58.284Z,45.50
2018-09-20T10:19:26.560Z,44.40
2018-09-20T10:26:47.200Z,47.20
2018-09-20T10:29:15.450Z,47.60
2018-09-20T10:31:44.031Z,48.40
2018-09-20T10:34:12.429Z,48.70
2018-09-20T10:36:40.591Z,48.10
2018-09-20T10:39:10.779Z,47.90
2018-09-20T10:41:39.018Z,48.80
2018-09-20T10:44:07.358Z,49.20
2018-09-20T10:46:35.679Z,49.60
2018-09-20T10:49:03.913Z,49.50
2018-09-20T10:51:32.698Z,48.90
2018-09-20T10:54:00.978Z,49.20
2018-09-20T10:56:29.199Z,48.90
2018-09-20T10:58:57.547Z,49.00
2018-09-20T11:01:25.804Z,48.80
2018-09-20T11:03:54.012Z,48.40
2018-09-20T11:06:22.428Z,47.40
2018-09-20T11:08:50.738Z,46.80
2018-09-20T11:11:18.992Z,47.00
2018-09-20T11:13:47.203Z,47.30
2018-09-20T11:16:15.389Z,46.90
2018-09-20T11:18:43.681Z,46.30
2018-09-20T11:21:11.919Z,46.50
2018-09-20T11:28:33.781Z,47.20
2018-09-20T11:31:01.982Z,46.50
2018-09-20T11:33:30.247Z,46.30
2018-09-20T11:35:58.433Z,46.50
2018-09-20T11:38:26.583Z,46.00
2018-09-20T11:40:55.923Z,46.40
2018-09-20T11:43:24.197Z,45.90
2018-09-20T11:45:52.644Z,46.00
2018-09-20T11:48:20.945Z,46.20
2018-09-20T11:50:49.133Z,46.90
2018-09-20T11:53:17.414Z,46.10
2018-09-20T11:55:45.782Z,46.00
2018-09-20T11:58:14.057Z,46.40
2018-09-20T12:00:43.142Z,46.60
2018-09-20T12:03:11.421Z,45.80
2018-09-20T12:05:39.635Z,47.00
2018-09-20T12:08:07.957Z,46.80
2018-09-20T12:10:36.222Z,48.00
2018-09-20T12:13:04.397Z,48.20
2018-09-20T12:15:32.714Z,47.30
2018-09-20T12:18:01.013Z,47.40
2018-09-20T12:20:30.377Z,47.70
2018-09-20T12:22:58.939Z,45.30
2018-09-20T12:25:27.371Z,45.70
2018-09-20T12:27:55.648Z,44.80
2018-09-20T12:30:23.987Z,44.10
2018-09-20T12:32:52.235Z,45.20
2018-09-20T12:35:20.593Z,45.10
2018-09-20T12:37:48.878Z,45.30
2018-09-20T12:40:17.233Z,45.10
2018-09-20T12:42:45.524Z,44.70
2018-09-20T12:45:14.537Z,44.70
2018-09-20T12:47:42.887Z,44.60
2018-09-20T12:50:11.290Z,44.00
2018-09-20T12:52:39.492Z,43.40
2018-09-20T12:55:07.715Z,43.90
2018-09-20T12:57:35.975Z,43.30
2018-09-20T13:00:04.858Z,43.80
2018-09-20T13:02:33.175Z,44.40
2018-09-20T13:05:01.480Z,44.10
2018-09-20T13:07:29.762Z,43.90
2018-09-20T13:09:58.042Z,43.90
2018-09-20T13:12:26.296Z,44.10
2018-09-20T13:14:54.563Z,44.50
2018-09-20T13:17:22.830Z,44.10
2018-09-20T13:19:51.194Z,43.90
2018-09-20T13:27:12.320Z,43.80
2018-09-20T13:29:40.556Z,43.40
2018-09-20T13:32:08.811Z,43.30
2018-09-20T13:34:37.119Z,43.30
2018-09-20T13:37:05.605Z,43.20
2018-09-20T13:39:34.028Z,42.70
2018-09-20T13:42:02.305Z,42.50
2018-09-20T13:44:30.613Z,45.10
2018-09-20T13:46:58.959Z,43.60
2018-09-20T13:49:27.263Z,43.40
2018-09-20T13:51:55.574Z,42.90
2018-09-20T13:54:23.969Z,43.30
2018-09-20T13:56:52.275Z,43.10
2018-09-20T13:59:21.096Z,42.80
2018-09-20T14:01:49.393Z,42.40
2018-09-20T14:04:17.667Z,42.10
2018-09-20T14:06:45.913Z,42.10
2018-09-20T14:09:14.173Z,42.20
2018-09-20T14:11:42.407Z,42.00
2018-09-20T14:14:12.268Z,42.10
2018-09-20T14:16:40.510Z,42.10
2018-09-20T14:19:08.722Z,42.00
2018-09-20T14:21:37.219Z,41.50
2018-09-20T14:24:05.473Z,42.80
2018-09-20T14:26:33.944Z,42.10
2018-09-20T14:29:02.234Z,42.20
2018-09-20T14:31:30.511Z,42.00
2018-09-20T14:33:59.353Z,41.90
2018-09-20T14:36:27.625Z,41.90
2018-09-20T14:38:55.915Z,41.90
2018-09-20T14:41:24.153Z,42.20
2018-09-20T14:43:52.449Z,42.50
2018-09-20T14:46:20.697Z,42.50
2018-09-20T14:48:49.846Z,42.50
2018-09-20T14:51:18.069Z,42.60
2018-09-20T14:53:46.441Z,42.90
2018-09-20T14:56:14.730Z,42.70
2018-09-20T14:58:42.997Z,42.00
2018-09-20T15:01:11.313Z,42.10
2018-09-20T15:03:39.588Z,41.90
2018-09-20T15:06:07.903Z,41.70
2018-09-20T15:08:36.694Z,42.10
2018-09-20T15:11:05.864Z,42.40
2018-09-20T15:13:34.115Z,42.40
2018-09-20T15:16:02.723Z,42.80
2018-09-20T15:18:31.036Z,42.30
2018-09-20T15:21:00.010Z,41.60
2018-09-20T15:23:28.309Z,41.80
2018-09-20T15:25:56.569Z,41.10
2018-09-20T15:28:24.915Z,41.60
2018-09-20T15:30:53.490Z,42.10
2018-09-20T15:33:21.848Z,42.10
2018-09-20T15:35:50.322Z,41.90
2018-09-20T15:38:18.584Z,42.40
2018-09-20T15:40:46.897Z,43.10
2018-09-20T15:43:15.405Z,43.20
2018-09-20T15:45:43.709Z,42.20
2018-09-20T15:48:12.069Z,43.40
2018-09-20T15:50:40.356Z,43.10
2018-09-20T15:53:08.683Z,43.40
2018-09-20T15:55:37.013Z,43.70
2018-09-20T15:58:06.277Z,43.80
2018-09-20T16:05:27.634Z,44.40
2018-09-20T16:07:55.928Z,44.70
2018-09-20T16:10:24.157Z,43.30
2018-09-20T16:12:53.192Z,43.10
2018-09-20T16:15:21.736Z,42.80
2018-09-20T16:17:50.036Z,42.90
2018-09-20T16:20:18.583Z,42.60
2018-09-20T16:22:46.834Z,42.50
2018-09-20T16:25:15.123Z,42.30
2018-09-20T16:27:43.438Z,42.50
2018-09-20T16:30:32.905Z,42.70
2018-09-20T16:33:17.689Z,43.00
2018-09-20T16:36:01.082Z,43.40
2018-09-20T16:38:40.940Z,43.20
2018-09-20T16:41:13.089Z,43.30
2018-09-20T16:43:41.317Z,44.10
2018-09-20T16:46:10.139Z,43.60
2018-09-20T16:48:38.441Z,44.20
2018-09-20T16:51:07.233Z,45.40
2018-09-20T16:53:35.736Z,44.60
2018-09-20T16:56:04.109Z,44.60
2018-09-20T16:58:32.411Z,44.30
2018-09-20T17:01:00.751Z,44.60
2018-09-20T17:03:29.223Z,45.00
2018-09-20T17:05:57.609Z,44.90
2018-09-20T17:08:25.898Z,45.00
2018-09-20T17:10:54.213Z,45.10
2018-09-20T17:13:22.512Z,45.50
2018-09-20T17:15:50.965Z,46.10
2018-09-20T17:18:19.260Z,46.30
2018-09-20T17:20:47.605Z,46.50
2018-09-20T17:23:15.921Z,46.70
2018-09-20T17:27:44.730Z,47.00
2018-09-20T17:30:13.318Z,47.30
2018-09-20T17:32:41.554Z,48.20
2018-09-20T17:35:10.068Z,48.20
2018-09-20T17:37:39.159Z,48.50
2018-09-20T17:40:08.041Z,49.00
2018-09-20T17:42:37.210Z,49.50
2018-09-20T17:45:05.968Z,50.60
2018-09-20T17:47:34.352Z,49.90
2018-09-20T17:50:04.288Z,50.50
2018-09-20T17:52:33.920Z,50.90
2018-09-20T17:55:02.413Z,51.10
2018-09-20T17:57:31.134Z,50.90
2018-09-20T17:59:59.443Z,51.90
2018-09-20T18:02:28.306Z,51.10
2018-09-20T18:04:56.781Z,50.80
2018-09-20T18:07:25.106Z,50.80
2018-09-20T18:09:54.252Z,50.70
2018-09-20T18:12:23.995Z,50.50
2018-09-20T18:14:52.723Z,50.40
2018-09-20T18:17:20.983Z,50.30
2018-09-20T18:19:49.758Z,50.10
2018-09-20T18:22:18.008Z,50.40
2018-09-20T18:24:46.247Z,51.20
2018-09-20T18:27:14.509Z,50.60
2018-09-20T18:29:42.782Z,50.40
2018-09-20T18:32:10.995Z,50.50
2018-09-20T18:34:40.290Z,50.80
2018-09-20T18:37:08.542Z,50.30
2018-09-20T18:39:37.032Z,50.70
2018-09-20T18:42:05.393Z,50.40
2018-09-20T18:44:33.716Z,50.50
2018-09-20T18:47:02.078Z,50.20
2018-09-20T18:49:30.420Z,50.10
2018-09-20T18:51:59.361Z,50.00
2018-09-20T18:54:27.648Z,49.80
2018-09-20T18:56:55.928Z,50.00
2018-09-20T18:59:24.227Z,49.90
2018-09-20T19:01:52.475Z,50.10
2018-09-20T19:04:20.774Z,50.00
2018-09-20T19:06:49.087Z,49.80
2018-09-20T19:09:17.288Z,49.80
2018-09-20T19:11:45.520Z,49.80
2018-09-20T19:14:13.852Z,50.40
2018-09-20T19:16:42.279Z,49.60
2018-09-20T19:19:10.477Z,49.50
2018-09-20T19:21:38.846Z,49.20
2018-09-20T19:24:07.176Z,49.10
2018-09-20T19:26:35.439Z,48.90
2018-09-20T19:29:03.767Z,48.80
2018-09-20T19:36:24.918Z,47.90
2018-09-20T19:38:53.466Z,48.40
2018-09-20T19:41:21.786Z,48.40
2018-09-20T19:43:50.325Z,48.40
2018-09-20T19:46:18.868Z,48.30
2018-09-20T19:48:47.496Z,48.40
2018-09-20T19:51:15.837Z,48.20
2018-09-20T19:53:44.276Z,49.30
2018-09-20T19:56:12.689Z,48.40
2018-09-20T19:58:41.127Z,48.60
2018-09-20T20:04:12.587Z,48.40
2018-09-20T20:06:41.175Z,48.70
2018-09-20T20:09:11.481Z,48.90
2018-09-20T20:11:40.501Z,49.20
2018-09-20T20:14:08.910Z,48.90
2018-09-20T20:16:37.209Z,49.00
2018-09-20T20:19:05.876Z,49.30
2018-09-20T20:21:35.124Z,49.20
2018-09-20T20:24:04.686Z,49.40
2018-09-20T20:26:33.111Z,49.80
2018-09-20T20:29:01.554Z,50.40
2018-09-20T20:31:30.153Z,49.70
2018-09-20T20:33:58.754Z,49.90
2018-09-20T20:36:28.193Z,49.90
2018-09-20T20:38:56.923Z,50.90
2018-09-20T20:41:25.868Z,49.50
2018-09-20T20:43:54.631Z,49.60
2018-09-20T20:46:23.116Z,49.60
2018-09-20T20:48:52.410Z,49.50
2018-09-20T20:51:20.898Z,49.70
2018-09-20T20:53:49.228Z,49.80
2018-09-20T20:56:17.576Z,49.80
2018-09-20T20:58:46.040Z,50.20
2018-09-20T21:01:18.924Z,50.70
2018-09-20T21:03:49.731Z,50.00
2018-09-20T21:06:18.849Z,50.10
2018-09-20T21:08:47.429Z,50.20
2018-09-20T21:11:16.121Z,50.40
2018-09-20T21:13:44.391Z,51.50
2018-09-20T21:16:14.147Z,50.70
2018-09-20T21:18:42.411Z,50.60
2018-09-20T21:21:10.727Z,50.60
2018-09-20T21:23:39.136Z,50.70
2018-09-20T21:26:08.470Z,50.70
2018-09-20T21:28:36.914Z,50.90
2018-09-20T21:31:05.910Z,51.40
2018-09-20T21:33:34.255Z,51.50
2018-09-20T21:36:02.723Z,51.40
2018-09-20T21:38:31.214Z,52.60
2018-09-20T21:40:59.601Z,51.30
2018-09-20T21:43:28.289Z,51.40
2018-09-20T21:45:56.700Z,51.70
2018-09-20T21:48:25.185Z,51.80
2018-09-20T21:50:53.573Z,52.00
2018-09-20T21:53:21.942Z,51.90
2018-09-20T21:55:50.298Z,52.00
2018-09-20T21:58:18.659Z,52.30
2018-09-20T22:00:47.241Z,52.30
2018-09-20T22:03:15.594Z,52.70
2018-09-20T22:05:44.173Z,52.30
2018-09-20T22:08:12.711Z,52.70
2018-09-20T22:15:36.091Z,52.60
2018-09-20T22:18:04.478Z,54.00
2018-09-20T22:20:33.930Z,52.80
2018-09-20T22:23:02.380Z,52.70
2018-09-20T22:25:31.408Z,52.60
2018-09-20T22:27:59.738Z,52.80
2018-09-20T22:30:28.875Z,52.60
2018-09-20T22:32:57.474Z,52.60
2018-09-20T22:35:25.823Z,52.60
2018-09-20T22:37:54.069Z,52.80
2018-09-20T22:40:22.337Z,53.10
2018-09-20T22:42:50.651Z,53.70
2018-09-20T22:45:18.935Z,52.70
2018-09-20T22:47:48.211Z,53.00
2018-09-20T22:50:16.515Z,53.20
2018-09-20T22:52:44.785Z,53.00
2018-09-20T22:55:13.000Z,53.40
2018-09-20T22:57:41.309Z,53.10
2018-09-20T23:00:09.536Z,53.40
2018-09-20T23:02:37.794Z,53.60
2018-09-20T23:05:06.041Z,53.90
2018-09-20T23:07:34.297Z,54.10
2018-09-20T23:10:02.559Z,54.20
2018-09-20T23:12:31.913Z,54.70
2018-09-20T23:15:00.225Z,55.00
2018-09-20T23:17:28.438Z,55.10
2018-09-20T23:19:56.677Z,55.20
2018-09-20T23:22:24.922Z,55.20
2018-09-20T23:24:53.197Z,55.50
2018-09-20T23:27:21.441Z,55.60
2018-09-20T23:29:49.700Z,56.40
2018-09-20T23:32:17.973Z,55.80
2018-09-20T23:34:47.107Z,56.00
2018-09-20T23:37:15.301Z,56.10
2018-09-20T23:39:43.538Z,56.60
2018-09-20T23:42:11.809Z,56.80
2018-09-20T23:44:40.165Z,56.90
2018-09-20T23:47:08.444Z,57.00
2018-09-20T23:49:36.757Z,57.30
2018-09-20T23:52:05.083Z,57.60
2018-09-20T23:54:33.337Z,57.80
2018-09-20T23:57:01.623Z,58.10
2018-09-20T23:59:29.920Z,58.30
